sensor_id;sensor_type;location;lat;lon;timestamp;P1;durP1;ratioP1;P2;durP2;ratioP2
15271;SDS011;7737;51.578;7.268;2023-10-19T00:02:04;10.07;;;8.07;;
15271;SDS011;7737;51.578;7.268;2023-10-19T00:04:33;10.88;;;8.95;;
15271;SDS011;7737;51.578;7.268;2023-10-19T00:07:01;11.80;;;9.80;;
15271;SDS011;7737;51.578;7.268;2023-10-19T00:09:29;8.75;;;7.85;;
15271;SDS011;7737;51.578;7.268;2023-10-19T00:12:02;12.77;;;8.88;;
15271;SDS011;7737;51.578;7.268;2023-10-19T00:14:30;9.68;;;8.68;;
15271;SDS011;7737;51.578;7.268;2023-10-19T00:16:57;10.48;;;8.45;;
15271;SDS011;7737;51.578;7.268;2023-10-19T00:19:25;9.80;;;8.80;;
15271;SDS011;7737;51.578;7.268;2023-10-19T00:21:54;10.73;;;9.15;;
15271;SDS011;7737;51.578;7.268;2023-10-19T00:24:27;10.25;;;8.65;;
15271;SDS011;7737;51.578;7.268;2023-10-19T00:26:56;12.77;;;9.38;;
15271;SDS011;7737;51.578;7.268;2023-10-19T00:29:22;11.38;;;9.48;;
15271;SDS011;7737;51.578;7.268;2023-10-19T00:31:58;11.23;;;9.45;;
15271;SDS011;7737;51.578;7.268;2023-10-19T00:34:25;14.05;;;9.48;;
15271;SDS011;7737;51.578;7.268;2023-10-19T00:36:55;10.77;;;9.25;;
15271;SDS011;7737;51.578;7.268;2023-10-19T00:39:21;11.75;;;9.52;;
15271;SDS011;7737;51.578;7.268;2023-10-19T00:41:49;11.18;;;9.13;;
15271;SDS011;7737;51.578;7.268;2023-10-19T00:44:18;11.25;;;9.30;;
15271;SDS011;7737;51.578;7.268;2023-10-19T00:46:51;12.95;;;8.80;;
15271;SDS011;7737;51.578;7.268;2023-10-19T00:49:25;9.70;;;8.70;;
15271;SDS011;7737;51.578;7.268;2023-10-19T00:51:55;15.63;;;10.27;;
15271;SDS011;7737;51.578;7.268;2023-10-19T00:54:29;9.68;;;8.60;;
15271;SDS011;7737;51.578;7.268;2023-10-19T00:57:00;11.65;;;9.38;;
15271;SDS011;7737;51.578;7.268;2023-10-19T00:59:31;10.88;;;9.77;;
15271;SDS011;7737;51.578;7.268;2023-10-19T01:02:03;9.88;;;8.88;;
15271;SDS011;7737;51.578;7.268;2023-10-19T01:04:42;13.55;;;9.32;;
15271;SDS011;7737;51.578;7.268;2023-10-19T01:07:17;11.07;;;9.70;;
15271;SDS011;7737;51.578;7.268;2023-10-19T01:09:48;12.18;;;9.65;;
15271;SDS011;7737;51.578;7.268;2023-10-19T01:12:18;10.07;;;9.05;;
15271;SDS011;7737;51.578;7.268;2023-10-19T01:15:01;9.85;;;8.85;;
15271;SDS011;7737;51.578;7.268;2023-10-19T01:17:31;12.60;;;9.27;;
15271;SDS011;7737;51.578;7.268;2023-10-19T01:19:59;9.75;;;8.75;;
15271;SDS011;7737;51.578;7.268;2023-10-19T01:22:34;13.77;;;9.95;;
15271;SDS011;7737;51.578;7.268;2023-10-19T01:25:04;13.90;;;10.35;;
15271;SDS011;7737;51.578;7.268;2023-10-19T01:27:35;11.25;;;9.07;;
15271;SDS011;7737;51.578;7.268;2023-10-19T01:30:02;10.38;;;9.32;;
15271;SDS011;7737;51.578;7.268;2023-10-19T01:32:30;10.45;;;9.45;;
15271;SDS011;7737;51.578;7.268;2023-10-19T01:34:57;7.82;;;7.13;;
15271;SDS011;7737;51.578;7.268;2023-10-19T01:37:23;8.43;;;7.68;;
15271;SDS011;7737;51.578;7.268;2023-10-19T01:39:49;9.77;;;8.77;;
15271;SDS011;7737;51.578;7.268;2023-10-19T01:42:18;9.98;;;8.98;;
15271;SDS011;7737;51.578;7.268;2023-10-19T01:44:44;9.15;;;8.25;;
15271;SDS011;7737;51.578;7.268;2023-10-19T01:47:10;10.57;;;9.48;;
15271;SDS011;7737;51.578;7.268;2023-10-19T01:49:37;8.75;;;7.75;;
15271;SDS011;7737;51.578;7.268;2023-10-19T01:52:03;8.63;;;7.78;;
15271;SDS011;7737;51.578;7.268;2023-10-19T01:54:29;7.78;;;6.88;;
15271;SDS011;7737;51.578;7.268;2023-10-19T01:56:56;7.55;;;6.80;;
15271;SDS011;7737;51.578;7.268;2023-10-19T01:59:23;7.85;;;6.85;;
15271;SDS011;7737;51.578;7.268;2023-10-19T02:01:52;7.95;;;7.15;;
15271;SDS011;7737;51.578;7.268;2023-10-19T02:04:18;8.18;;;7.38;;
15271;SDS011;7737;51.578;7.268;2023-10-19T02:06:47;8.38;;;7.57;;
15271;SDS011;7737;51.578;7.268;2023-10-19T02:09:15;8.10;;;7.30;;
15271;SDS011;7737;51.578;7.268;2023-10-19T02:11:48;7.85;;;7.05;;
15271;SDS011;7737;51.578;7.268;2023-10-19T02:14:15;8.88;;;7.97;;
15271;SDS011;7737;51.578;7.268;2023-10-19T02:16:46;8.63;;;7.80;;
15271;SDS011;7737;51.578;7.268;2023-10-19T02:19:12;9.38;;;7.72;;
15271;SDS011;7737;51.578;7.268;2023-10-19T02:21:39;9.63;;;8.43;;
15271;SDS011;7737;51.578;7.268;2023-10-19T02:24:06;9.88;;;8.20;;
15271;SDS011;7737;51.578;7.268;2023-10-19T02:26:33;10.88;;;8.85;;
15271;SDS011;7737;51.578;7.268;2023-10-19T02:28:59;8.82;;;7.97;;
15271;SDS011;7737;51.578;7.268;2023-10-19T02:31:25;11.25;;;9.07;;
15271;SDS011;7737;51.578;7.268;2023-10-19T02:33:54;9.48;;;8.40;;
15271;SDS011;7737;51.578;7.268;2023-10-19T02:36:24;12.55;;;9.32;;
15271;SDS011;7737;51.578;7.268;2023-10-19T02:38:53;10.63;;;9.02;;
15271;SDS011;7737;51.578;7.268;2023-10-19T02:41:19;11.20;;;8.55;;
15271;SDS011;7737;51.578;7.268;2023-10-19T02:43:46;7.85;;;7.07;;
15271;SDS011;7737;51.578;7.268;2023-10-19T02:46:16;7.97;;;7.25;;
15271;SDS011;7737;51.578;7.268;2023-10-19T02:48:43;7.78;;;6.55;;
15271;SDS011;7737;51.578;7.268;2023-10-19T02:51:11;6.88;;;6.18;;
15271;SDS011;7737;51.578;7.268;2023-10-19T02:53:38;7.47;;;6.00;;
15271;SDS011;7737;51.578;7.268;2023-10-19T02:56:11;5.50;;;4.95;;
15271;SDS011;7737;51.578;7.268;2023-10-19T02:58:40;5.40;;;4.90;;
15271;SDS011;7737;51.578;7.268;2023-10-19T03:01:13;4.55;;;4.15;;
15271;SDS011;7737;51.578;7.268;2023-10-19T03:03:46;5.22;;;4.50;;
15271;SDS011;7737;51.578;7.268;2023-10-19T03:06:15;5.07;;;4.10;;
15271;SDS011;7737;51.578;7.268;2023-10-19T03:08:45;4.85;;;4.38;;
15271;SDS011;7737;51.578;7.268;2023-10-19T03:11:11;4.00;;;3.67;;
15271;SDS011;7737;51.578;7.268;2023-10-19T03:13:39;4.97;;;3.85;;
15271;SDS011;7737;51.578;7.268;2023-10-19T03:16:06;5.03;;;4.00;;
15271;SDS011;7737;51.578;7.268;2023-10-19T03:18:32;3.40;;;3.10;;
15271;SDS011;7737;51.578;7.268;2023-10-19T03:21:00;5.53;;;3.17;;
15271;SDS011;7737;51.578;7.268;2023-10-19T03:23:27;3.38;;;2.92;;
15271;SDS011;7737;51.578;7.268;2023-10-19T03:25:55;3.58;;;2.80;;
15271;SDS011;7737;51.578;7.268;2023-10-19T03:28:39;3.45;;;2.60;;
15271;SDS011;7737;51.578;7.268;2023-10-19T03:31:06;4.63;;;2.80;;
15271;SDS011;7737;51.578;7.268;2023-10-19T03:33:33;4.45;;;3.05;;
15271;SDS011;7737;51.578;7.268;2023-10-19T03:36:01;4.10;;;2.70;;
15271;SDS011;7737;51.578;7.268;2023-10-19T03:38:30;4.00;;;2.90;;
15271;SDS011;7737;51.578;7.268;2023-10-19T03:41:01;3.03;;;2.70;;
15271;SDS011;7737;51.578;7.268;2023-10-19T03:43:32;3.75;;;2.40;;
15271;SDS011;7737;51.578;7.268;2023-10-19T03:46:01;2.88;;;2.40;;
15271;SDS011;7737;51.578;7.268;2023-10-19T03:48:39;3.35;;;2.30;;
15271;SDS011;7737;51.578;7.268;2023-10-19T03:51:06;2.67;;;2.17;;
15271;SDS011;7737;51.578;7.268;2023-10-19T03:53:38;3.45;;;2.28;;
15271;SDS011;7737;51.578;7.268;2023-10-19T03:56:08;4.28;;;2.10;;
15271;SDS011;7737;51.578;7.268;2023-10-19T03:58:36;3.72;;;2.20;;
15271;SDS011;7737;51.578;7.268;2023-10-19T04:01:04;3.58;;;2.03;;
15271;SDS011;7737;51.578;7.268;2023-10-19T04:03:32;5.53;;;2.22;;
15271;SDS011;7737;51.578;7.268;2023-10-19T04:06:01;2.60;;;2.00;;
15271;SDS011;7737;51.578;7.268;2023-10-19T04:08:29;5.13;;;1.95;;
15271;SDS011;7737;51.578;7.268;2023-10-19T04:11:01;4.25;;;1.90;;
15271;SDS011;7737;51.578;7.268;2023-10-19T04:13:36;3.05;;;2.00;;
15271;SDS011;7737;51.578;7.268;2023-10-19T04:16:04;3.67;;;1.90;;
15271;SDS011;7737;51.578;7.268;2023-10-19T04:18:31;2.75;;;1.92;;
15271;SDS011;7737;51.578;7.268;2023-10-19T04:21:00;2.90;;;1.88;;
15271;SDS011;7737;51.578;7.268;2023-10-19T04:23:27;3.22;;;1.88;;
15271;SDS011;7737;51.578;7.268;2023-10-19T04:25:54;2.35;;;1.70;;
15271;SDS011;7737;51.578;7.268;2023-10-19T04:28:24;2.22;;;1.70;;
15271;SDS011;7737;51.578;7.268;2023-10-19T04:30:58;4.28;;;2.17;;
15271;SDS011;7737;51.578;7.268;2023-10-19T04:33:28;3.65;;;2.10;;
15271;SDS011;7737;51.578;7.268;2023-10-19T04:35:55;2.83;;;1.95;;
15271;SDS011;7737;51.578;7.268;2023-10-19T04:38:25;3.00;;;1.60;;
15271;SDS011;7737;51.578;7.268;2023-10-19T04:40:51;4.60;;;1.63;;
15271;SDS011;7737;51.578;7.268;2023-10-19T04:43:18;3.58;;;1.50;;
15271;SDS011;7737;51.578;7.268;2023-10-19T04:45:48;2.72;;;1.60;;
15271;SDS011;7737;51.578;7.268;2023-10-19T04:48:14;3.80;;;1.60;;
15271;SDS011;7737;51.578;7.268;2023-10-19T04:50:41;3.53;;;1.83;;
15271;SDS011;7737;51.578;7.268;2023-10-19T04:53:08;3.95;;;1.85;;
15271;SDS011;7737;51.578;7.268;2023-10-19T04:55:34;2.33;;;1.85;;
15271;SDS011;7737;51.578;7.268;2023-10-19T04:58:01;2.60;;;2.10;;
15271;SDS011;7737;51.578;7.268;2023-10-19T05:00:27;2.03;;;1.65;;
15271;SDS011;7737;51.578;7.268;2023-10-19T05:02:55;2.33;;;1.70;;
15271;SDS011;7737;51.578;7.268;2023-10-19T05:05:22;2.42;;;1.60;;
15271;SDS011;7737;51.578;7.268;2023-10-19T05:07:49;4.85;;;1.77;;
15271;SDS011;7737;51.578;7.268;2023-10-19T05:10:17;3.53;;;1.90;;
15271;SDS011;7737;51.578;7.268;2023-10-19T05:12:44;3.13;;;1.92;;
15271;SDS011;7737;51.578;7.268;2023-10-19T05:15:11;3.80;;;1.80;;
15271;SDS011;7737;51.578;7.268;2023-10-19T05:17:37;2.85;;;1.58;;
15271;SDS011;7737;51.578;7.268;2023-10-19T05:20:07;2.30;;;1.50;;
15271;SDS011;7737;51.578;7.268;2023-10-19T05:22:34;1.77;;;1.55;;
15271;SDS011;7737;51.578;7.268;2023-10-19T05:25:01;2.53;;;1.48;;
15271;SDS011;7737;51.578;7.268;2023-10-19T05:27:27;2.72;;;1.45;;
15271;SDS011;7737;51.578;7.268;2023-10-19T05:29:54;4.10;;;1.90;;
15271;SDS011;7737;51.578;7.268;2023-10-19T05:32:21;3.33;;;1.70;;
15271;SDS011;7737;51.578;7.268;2023-10-19T05:34:49;2.90;;;2.00;;
15271;SDS011;7737;51.578;7.268;2023-10-19T05:37:17;4.45;;;2.08;;
15271;SDS011;7737;51.578;7.268;2023-10-19T05:39:43;3.70;;;2.17;;
15271;SDS011;7737;51.578;7.268;2023-10-19T05:42:10;3.88;;;2.10;;
15271;SDS011;7737;51.578;7.268;2023-10-19T05:44:36;2.88;;;1.90;;
15271;SDS011;7737;51.578;7.268;2023-10-19T05:47:03;2.45;;;1.80;;
15271;SDS011;7737;51.578;7.268;2023-10-19T05:49:32;2.83;;;1.80;;
15271;SDS011;7737;51.578;7.268;2023-10-19T05:51:58;4.20;;;2.10;;
15271;SDS011;7737;51.578;7.268;2023-10-19T05:54:26;2.45;;;2.00;;
15271;SDS011;7737;51.578;7.268;2023-10-19T05:56:53;4.35;;;2.42;;
15271;SDS011;7737;51.578;7.268;2023-10-19T05:59:19;3.00;;;1.90;;
15271;SDS011;7737;51.578;7.268;2023-10-19T06:01:49;3.00;;;2.17;;
15271;SDS011;7737;51.578;7.268;2023-10-19T06:04:16;4.45;;;2.25;;
15271;SDS011;7737;51.578;7.268;2023-10-19T06:06:43;2.97;;;2.33;;
15271;SDS011;7737;51.578;7.268;2023-10-19T06:09:09;3.58;;;2.42;;
15271;SDS011;7737;51.578;7.268;2023-10-19T06:11:37;3.65;;;1.98;;
15271;SDS011;7737;51.578;7.268;2023-10-19T06:14:07;3.35;;;1.92;;
15271;SDS011;7737;51.578;7.268;2023-10-19T06:16:34;3.53;;;2.00;;
15271;SDS011;7737;51.578;7.268;2023-10-19T06:19:01;2.50;;;2.25;;
15271;SDS011;7737;51.578;7.268;2023-10-19T06:21:28;2.00;;;1.80;;
15271;SDS011;7737;51.578;7.268;2023-10-19T06:23:55;2.95;;;2.08;;
15271;SDS011;7737;51.578;7.268;2023-10-19T06:26:22;2.85;;;2.00;;
15271;SDS011;7737;51.578;7.268;2023-10-19T06:28:50;2.63;;;1.90;;
15271;SDS011;7737;51.578;7.268;2023-10-19T06:31:21;5.70;;;3.47;;
15271;SDS011;7737;51.578;7.268;2023-10-19T06:33:49;3.65;;;3.00;;
15271;SDS011;7737;51.578;7.268;2023-10-19T06:36:15;5.05;;;2.30;;
15271;SDS011;7737;51.578;7.268;2023-10-19T06:38:42;3.60;;;2.00;;
15271;SDS011;7737;51.578;7.268;2023-10-19T06:41:12;4.78;;;2.47;;
15271;SDS011;7737;51.578;7.268;2023-10-19T06:43:41;2.78;;;2.50;;
15271;SDS011;7737;51.578;7.268;2023-10-19T06:46:09;3.42;;;2.50;;
15271;SDS011;7737;51.578;7.268;2023-10-19T06:48:36;3.90;;;2.20;;
15271;SDS011;7737;51.578;7.268;2023-10-19T06:51:03;3.38;;;2.38;;
15271;SDS011;7737;51.578;7.268;2023-10-19T06:53:31;3.40;;;2.25;;
15271;SDS011;7737;51.578;7.268;2023-10-19T06:55:58;2.75;;;2.17;;
15271;SDS011;7737;51.578;7.268;2023-10-19T06:58:24;4.05;;;2.10;;
15271;SDS011;7737;51.578;7.268;2023-10-19T07:00:51;2.55;;;2.08;;
15271;SDS011;7737;51.578;7.268;2023-10-19T07:03:26;4.22;;;2.67;;
15271;SDS011;7737;51.578;7.268;2023-10-19T07:05:54;5.38;;;2.42;;
15271;SDS011;7737;51.578;7.268;2023-10-19T07:08:21;3.10;;;2.22;;
15271;SDS011;7737;51.578;7.268;2023-10-19T07:10:48;3.75;;;2.65;;
15271;SDS011;7737;51.578;7.268;2023-10-19T07:13:15;6.43;;;2.95;;
15271;SDS011;7737;51.578;7.268;2023-10-19T07:15:44;4.03;;;2.45;;
15271;SDS011;7737;51.578;7.268;2023-10-19T07:18:11;3.13;;;2.40;;
15271;SDS011;7737;51.578;7.268;2023-10-19T07:20:40;3.70;;;2.45;;
15271;SDS011;7737;51.578;7.268;2023-10-19T07:23:07;6.22;;;2.60;;
15271;SDS011;7737;51.578;7.268;2023-10-19T07:25:43;5.10;;;2.40;;
15271;SDS011;7737;51.578;7.268;2023-10-19T07:28:13;3.25;;;2.30;;
15271;SDS011;7737;51.578;7.268;2023-10-19T07:30:40;4.88;;;2.35;;
15271;SDS011;7737;51.578;7.268;2023-10-19T07:33:07;3.85;;;2.50;;
15271;SDS011;7737;51.578;7.268;2023-10-19T07:35:35;4.80;;;2.60;;
15271;SDS011;7737;51.578;7.268;2023-10-19T07:38:05;5.13;;;2.20;;
15271;SDS011;7737;51.578;7.268;2023-10-19T07:40:32;3.28;;;2.38;;
15271;SDS011;7737;51.578;7.268;2023-10-19T07:42:59;4.68;;;2.60;;
15271;SDS011;7737;51.578;7.268;2023-10-19T07:45:27;4.30;;;2.40;;
15271;SDS011;7737;51.578;7.268;2023-10-19T07:47:56;5.70;;;2.40;;
15271;SDS011;7737;51.578;7.268;2023-10-19T07:50:31;4.05;;;2.50;;
15271;SDS011;7737;51.578;7.268;2023-10-19T07:52:57;5.97;;;2.08;;
15271;SDS011;7737;51.578;7.268;2023-10-19T07:55:25;3.90;;;2.70;;
15271;SDS011;7737;51.578;7.268;2023-10-19T07:57:52;3.78;;;2.40;;
15271;SDS011;7737;51.578;7.268;2023-10-19T08:00:20;4.35;;;2.72;;
15271;SDS011;7737;51.578;7.268;2023-10-19T08:02:48;4.07;;;2.50;;
15271;SDS011;7737;51.578;7.268;2023-10-19T08:05:16;5.95;;;2.70;;
15271;SDS011;7737;51.578;7.268;2023-10-19T08:07:44;2.90;;;2.20;;
15271;SDS011;7737;51.578;7.268;2023-10-19T08:10:12;3.75;;;2.33;;
15271;SDS011;7737;51.578;7.268;2023-10-19T08:12:42;5.03;;;2.10;;
15271;SDS011;7737;51.578;7.268;2023-10-19T08:15:10;3.05;;;1.75;;
15271;SDS011;7737;51.578;7.268;2023-10-19T08:17:39;3.78;;;2.15;;
15271;SDS011;7737;51.578;7.268;2023-10-19T08:20:06;5.03;;;2.50;;
15271;SDS011;7737;51.578;7.268;2023-10-19T08:22:36;4.53;;;2.72;;
15271;SDS011;7737;51.578;7.268;2023-10-19T08:25:03;7.88;;;3.58;;
15271;SDS011;7737;51.578;7.268;2023-10-19T08:27:36;3.88;;;3.10;;
15271;SDS011;7737;51.578;7.268;2023-10-19T08:30:06;5.68;;;3.47;;
15271;SDS011;7737;51.578;7.268;2023-10-19T08:32:35;6.80;;;3.40;;
15271;SDS011;7737;51.578;7.268;2023-10-19T08:35:01;6.65;;;4.13;;
15271;SDS011;7737;51.578;7.268;2023-10-19T08:37:29;4.32;;;3.25;;
15271;SDS011;7737;51.578;7.268;2023-10-19T08:39:56;6.28;;;3.47;;
15271;SDS011;7737;51.578;7.268;2023-10-19T08:42:23;4.03;;;3.63;;
15271;SDS011;7737;51.578;7.268;2023-10-19T08:44:50;6.65;;;3.95;;
15271;SDS011;7737;51.578;7.268;2023-10-19T08:47:18;5.05;;;3.20;;
15271;SDS011;7737;51.578;7.268;2023-10-19T08:49:45;4.22;;;3.33;;
15271;SDS011;7737;51.578;7.268;2023-10-19T08:52:11;5.82;;;3.83;;
15271;SDS011;7737;51.578;7.268;2023-10-19T08:54:40;4.57;;;3.72;;
15271;SDS011;7737;51.578;7.268;2023-10-19T08:57:07;4.82;;;3.53;;
15271;SDS011;7737;51.578;7.268;2023-10-19T08:59:33;7.10;;;3.80;;
15271;SDS011;7737;51.578;7.268;2023-10-19T09:02:00;4.50;;;3.38;;
15271;SDS011;7737;51.578;7.268;2023-10-19T09:04:29;5.15;;;3.42;;
15271;SDS011;7737;51.578;7.268;2023-10-19T09:06:55;4.65;;;3.47;;
15271;SDS011;7737;51.578;7.268;2023-10-19T09:09:22;4.95;;;3.30;;
15271;SDS011;7737;51.578;7.268;2023-10-19T09:11:50;6.07;;;3.35;;
15271;SDS011;7737;51.578;7.268;2023-10-19T09:14:21;5.40;;;3.15;;
15271;SDS011;7737;51.578;7.268;2023-10-19T09:16:58;4.10;;;3.42;;
15271;SDS011;7737;51.578;7.268;2023-10-19T09:19:39;4.55;;;3.15;;
15271;SDS011;7737;51.578;7.268;2023-10-19T09:22:07;4.72;;;3.33;;
15271;SDS011;7737;51.578;7.268;2023-10-19T09:24:41;5.38;;;3.10;;
15271;SDS011;7737;51.578;7.268;2023-10-19T09:27:10;4.80;;;3.17;;
15271;SDS011;7737;51.578;7.268;2023-10-19T09:29:37;5.38;;;2.90;;
15271;SDS011;7737;51.578;7.268;2023-10-19T09:32:04;7.82;;;2.85;;
15271;SDS011;7737;51.578;7.268;2023-10-19T09:34:31;8.00;;;3.05;;
15271;SDS011;7737;51.578;7.268;2023-10-19T09:37:01;4.45;;;2.85;;
15271;SDS011;7737;51.578;7.268;2023-10-19T09:39:28;6.22;;;3.08;;
15271;SDS011;7737;51.578;7.268;2023-10-19T09:41:59;4.95;;;2.80;;
15271;SDS011;7737;51.578;7.268;2023-10-19T09:44:30;8.15;;;3.03;;
15271;SDS011;7737;51.578;7.268;2023-10-19T09:47:01;6.15;;;3.28;;
15271;SDS011;7737;51.578;7.268;2023-10-19T09:49:34;6.30;;;3.40;;
15271;SDS011;7737;51.578;7.268;2023-10-19T09:52:02;5.43;;;2.55;;
15271;SDS011;7737;51.578;7.268;2023-10-19T09:54:32;8.05;;;2.90;;
15271;SDS011;7737;51.578;7.268;2023-10-19T09:57:13;5.50;;;2.85;;
15271;SDS011;7737;51.578;7.268;2023-10-19T09:59:44;5.78;;;2.67;;
15271;SDS011;7737;51.578;7.268;2023-10-19T10:02:13;3.53;;;2.40;;
15271;SDS011;7737;51.578;7.268;2023-10-19T10:04:43;4.72;;;2.58;;
15271;SDS011;7737;51.578;7.268;2023-10-19T10:07:12;4.78;;;2.47;;
15271;SDS011;7737;51.578;7.268;2023-10-19T10:09:39;3.92;;;2.03;;
15271;SDS011;7737;51.578;7.268;2023-10-19T10:12:21;4.78;;;2.08;;
15271;SDS011;7737;51.578;7.268;2023-10-19T10:14:55;3.72;;;2.17;;
15271;SDS011;7737;51.578;7.268;2023-10-19T10:17:23;4.60;;;2.25;;
15271;SDS011;7737;51.578;7.268;2023-10-19T10:19:53;4.22;;;2.33;;
15271;SDS011;7737;51.578;7.268;2023-10-19T10:22:22;4.38;;;1.85;;
15271;SDS011;7737;51.578;7.268;2023-10-19T10:24:53;4.70;;;2.30;;
15271;SDS011;7737;51.578;7.268;2023-10-19T10:27:22;6.55;;;2.20;;
15271;SDS011;7737;51.578;7.268;2023-10-19T10:29:55;3.78;;;1.90;;
15271;SDS011;7737;51.578;7.268;2023-10-19T10:35:09;4.07;;;1.58;;
15271;SDS011;7737;51.578;7.268;2023-10-19T10:37:37;5.13;;;2.30;;
15271;SDS011;7737;51.578;7.268;2023-10-19T10:40:05;2.97;;;1.75;;
15271;SDS011;7737;51.578;7.268;2023-10-19T10:42:32;3.15;;;1.70;;
15271;SDS011;7737;51.578;7.268;2023-10-19T10:44:59;3.65;;;2.00;;
15271;SDS011;7737;51.578;7.268;2023-10-19T10:47:28;5.45;;;2.17;;
15271;SDS011;7737;51.578;7.268;2023-10-19T10:49:55;5.10;;;2.60;;
15271;SDS011;7737;51.578;7.268;2023-10-19T10:52:23;5.68;;;2.13;;
15271;SDS011;7737;51.578;7.268;2023-10-19T10:54:55;7.53;;;2.90;;
15271;SDS011;7737;51.578;7.268;2023-10-19T10:57:22;4.30;;;2.58;;
15271;SDS011;7737;51.578;7.268;2023-10-19T11:00:00;5.00;;;2.00;;
15271;SDS011;7737;51.578;7.268;2023-10-19T11:02:28;5.35;;;1.60;;
15271;SDS011;7737;51.578;7.268;2023-10-19T11:04:54;4.22;;;2.00;;
15271;SDS011;7737;51.578;7.268;2023-10-19T11:07:21;7.60;;;2.10;;
15271;SDS011;7737;51.578;7.268;2023-10-19T11:09:49;5.07;;;1.60;;
15271;SDS011;7737;51.578;7.268;2023-10-19T11:12:17;3.50;;;1.70;;
15271;SDS011;7737;51.578;7.268;2023-10-19T11:14:53;4.13;;;1.63;;
15271;SDS011;7737;51.578;7.268;2023-10-19T11:17:21;5.32;;;1.75;;
15271;SDS011;7737;51.578;7.268;2023-10-19T11:19:53;5.75;;;1.90;;
15271;SDS011;7737;51.578;7.268;2023-10-19T11:22:21;4.07;;;1.60;;
15271;SDS011;7737;51.578;7.268;2023-10-19T11:24:50;4.30;;;1.88;;
15271;SDS011;7737;51.578;7.268;2023-10-19T11:27:23;5.15;;;1.90;;
15271;SDS011;7737;51.578;7.268;2023-10-19T11:29:55;5.82;;;1.95;;
15271;SDS011;7737;51.578;7.268;2023-10-19T11:32:23;6.03;;;3.17;;
15271;SDS011;7737;51.578;7.268;2023-10-19T11:34:51;4.45;;;1.85;;
15271;SDS011;7737;51.578;7.268;2023-10-19T11:37:18;3.25;;;1.35;;
15271;SDS011;7737;51.578;7.268;2023-10-19T11:39:44;3.38;;;1.38;;
15271;SDS011;7737;51.578;7.268;2023-10-19T11:42:11;4.38;;;1.77;;
15271;SDS011;7737;51.578;7.268;2023-10-19T11:44:40;4.82;;;1.60;;
15271;SDS011;7737;51.578;7.268;2023-10-19T11:47:06;5.82;;;1.63;;
15271;SDS011;7737;51.578;7.268;2023-10-19T11:49:33;3.17;;;1.40;;
15271;SDS011;7737;51.578;7.268;2023-10-19T11:51:59;5.13;;;1.88;;
15271;SDS011;7737;51.578;7.268;2023-10-19T11:54:27;7.55;;;1.90;;
15271;SDS011;7737;51.578;7.268;2023-10-19T11:56:54;7.80;;;1.75;;
15271;SDS011;7737;51.578;7.268;2023-10-19T11:59:21;6.25;;;1.55;;
15271;SDS011;7737;51.578;7.268;2023-10-19T12:01:49;4.43;;;1.50;;
15271;SDS011;7737;51.578;7.268;2023-10-19T12:04:16;5.05;;;1.63;;
15271;SDS011;7737;51.578;7.268;2023-10-19T12:06:43;6.50;;;1.67;;
15271;SDS011;7737;51.578;7.268;2023-10-19T12:09:11;6.13;;;1.85;;
15271;SDS011;7737;51.578;7.268;2023-10-19T12:11:40;6.97;;;1.98;;
15271;SDS011;7737;51.578;7.268;2023-10-19T12:14:07;5.50;;;1.77;;
15271;SDS011;7737;51.578;7.268;2023-10-19T12:16:37;5.50;;;1.73;;
15271;SDS011;7737;51.578;7.268;2023-10-19T12:19:05;4.97;;;1.60;;
15271;SDS011;7737;51.578;7.268;2023-10-19T12:21:33;4.80;;;1.88;;
15271;SDS011;7737;51.578;7.268;2023-10-19T12:24:03;6.78;;;1.83;;
15271;SDS011;7737;51.578;7.268;2023-10-19T12:26:29;6.22;;;1.85;;
15271;SDS011;7737;51.578;7.268;2023-10-19T12:28:56;6.80;;;1.98;;
15271;SDS011;7737;51.578;7.268;2023-10-19T12:31:23;4.57;;;1.85;;
15271;SDS011;7737;51.578;7.268;2023-10-19T12:33:50;5.15;;;1.73;;
15271;SDS011;7737;51.578;7.268;2023-10-19T12:36:19;9.05;;;2.00;;
15271;SDS011;7737;51.578;7.268;2023-10-19T12:38:56;4.57;;;1.60;;
15271;SDS011;7737;51.578;7.268;2023-10-19T12:41:23;3.92;;;1.38;;
15271;SDS011;7737;51.578;7.268;2023-10-19T12:43:50;4.55;;;1.80;;
15271;SDS011;7737;51.578;7.268;2023-10-19T12:46:17;6.35;;;1.90;;
15271;SDS011;7737;51.578;7.268;2023-10-19T12:48:44;7.65;;;1.60;;
15271;SDS011;7737;51.578;7.268;2023-10-19T12:51:12;5.63;;;1.73;;
15271;SDS011;7737;51.578;7.268;2023-10-19T12:53:41;5.35;;;1.50;;
15271;SDS011;7737;51.578;7.268;2023-10-19T12:56:07;4.28;;;1.42;;
15271;SDS011;7737;51.578;7.268;2023-10-19T12:58:35;6.40;;;1.83;;
15271;SDS011;7737;51.578;7.268;2023-10-19T13:01:03;5.85;;;1.65;;
15271;SDS011;7737;51.578;7.268;2023-10-19T13:03:30;6.05;;;1.50;;
15271;SDS011;7737;51.578;7.268;2023-10-19T13:05:57;5.28;;;1.80;;
15271;SDS011;7737;51.578;7.268;2023-10-19T13:08:24;6.65;;;1.80;;
15271;SDS011;7737;51.578;7.268;2023-10-19T13:10:54;8.07;;;2.15;;
15271;SDS011;7737;51.578;7.268;2023-10-19T13:13:21;5.10;;;1.55;;
15271;SDS011;7737;51.578;7.268;2023-10-19T13:15:49;4.97;;;1.70;;
15271;SDS011;7737;51.578;7.268;2023-10-19T13:18:15;5.18;;;1.70;;
15271;SDS011;7737;51.578;7.268;2023-10-19T13:20:45;4.88;;;1.65;;
15271;SDS011;7737;51.578;7.268;2023-10-19T13:23:13;4.95;;;1.73;;
15271;SDS011;7737;51.578;7.268;2023-10-19T13:25:41;6.47;;;1.90;;
15271;SDS011;7737;51.578;7.268;2023-10-19T13:28:16;6.90;;;2.80;;
15271;SDS011;7737;51.578;7.268;2023-10-19T13:30:45;8.05;;;2.10;;
15271;SDS011;7737;51.578;7.268;2023-10-19T13:33:14;5.72;;;2.05;;
15271;SDS011;7737;51.578;7.268;2023-10-19T13:35:41;7.63;;;2.25;;
15271;SDS011;7737;51.578;7.268;2023-10-19T13:38:09;9.38;;;2.10;;
15271;SDS011;7737;51.578;7.268;2023-10-19T13:40:38;9.55;;;2.55;;
15271;SDS011;7737;51.578;7.268;2023-10-19T13:43:05;5.13;;;1.60;;
15271;SDS011;7737;51.578;7.268;2023-10-19T13:45:35;5.55;;;2.05;;
15271;SDS011;7737;51.578;7.268;2023-10-19T13:48:02;6.25;;;1.85;;
15271;SDS011;7737;51.578;7.268;2023-10-19T13:50:30;6.00;;;1.70;;
15271;SDS011;7737;51.578;7.268;2023-10-19T13:52:57;3.50;;;1.50;;
15271;SDS011;7737;51.578;7.268;2023-10-19T13:55:25;4.93;;;1.65;;
15271;SDS011;7737;51.578;7.268;2023-10-19T13:57:53;4.95;;;1.80;;
15271;SDS011;7737;51.578;7.268;2023-10-19T14:00:21;5.80;;;1.65;;
15271;SDS011;7737;51.578;7.268;2023-10-19T14:02:57;6.65;;;2.05;;
15271;SDS011;7737;51.578;7.268;2023-10-19T14:05:24;7.63;;;2.58;;
15271;SDS011;7737;51.578;7.268;2023-10-19T14:07:50;4.78;;;1.70;;
15271;SDS011;7737;51.578;7.268;2023-10-19T14:10:18;5.13;;;1.67;;
15271;SDS011;7737;51.578;7.268;2023-10-19T14:12:47;5.63;;;2.00;;
15271;SDS011;7737;51.578;7.268;2023-10-19T14:15:14;4.85;;;1.73;;
15271;SDS011;7737;51.578;7.268;2023-10-19T14:17:42;5.45;;;2.13;;
15271;SDS011;7737;51.578;7.268;2023-10-19T14:20:11;5.70;;;1.60;;
15271;SDS011;7737;51.578;7.268;2023-10-19T14:22:39;4.75;;;2.10;;
15271;SDS011;7737;51.578;7.268;2023-10-19T14:25:07;6.47;;;2.15;;
15271;SDS011;7737;51.578;7.268;2023-10-19T14:27:37;5.50;;;2.08;;
15271;SDS011;7737;51.578;7.268;2023-10-19T14:30:05;4.57;;;2.05;;
15271;SDS011;7737;51.578;7.268;2023-10-19T14:32:33;6.25;;;1.80;;
15271;SDS011;7737;51.578;7.268;2023-10-19T14:34:59;7.60;;;2.42;;
15271;SDS011;7737;51.578;7.268;2023-10-19T14:37:27;5.28;;;2.08;;
15271;SDS011;7737;51.578;7.268;2023-10-19T14:39:53;5.18;;;1.77;;
15271;SDS011;7737;51.578;7.268;2023-10-19T14:42:20;8.70;;;2.40;;
15271;SDS011;7737;51.578;7.268;2023-10-19T14:44:46;6.28;;;1.90;;
15271;SDS011;7737;51.578;7.268;2023-10-19T14:47:13;5.00;;;1.88;;
15271;SDS011;7737;51.578;7.268;2023-10-19T14:49:40;7.53;;;2.17;;
15271;SDS011;7737;51.578;7.268;2023-10-19T14:52:06;7.40;;;1.80;;
15271;SDS011;7737;51.578;7.268;2023-10-19T14:54:34;7.50;;;1.92;;
15271;SDS011;7737;51.578;7.268;2023-10-19T14:57:01;4.30;;;2.00;;
15271;SDS011;7737;51.578;7.268;2023-10-19T14:59:27;6.13;;;2.00;;
15271;SDS011;7737;51.578;7.268;2023-10-19T15:01:54;6.30;;;2.30;;
15271;SDS011;7737;51.578;7.268;2023-10-19T15:04:21;8.82;;;2.38;;
15271;SDS011;7737;51.578;7.268;2023-10-19T15:06:47;6.63;;;2.03;;
15271;SDS011;7737;51.578;7.268;2023-10-19T15:09:14;4.97;;;1.90;;
15271;SDS011;7737;51.578;7.268;2023-10-19T15:11:46;8.05;;;2.58;;